sensor_id;sensor_type;location;lat;lon;timestamp;P1;durP1;ratioP1;P2;durP2;ratioP2
6149;SDS011;3106;42.670;23.318;2024-03-23T00:55:30;47.60;;;18.10;;
6149;SDS011;3106;42.670;23.318;2024-03-23T00:57:59;51.80;;;17.93;;
6149;SDS011;3106;42.670;23.318;2024-03-23T01:00:28;47.13;;;17.83;;
6149;SDS011;3106;42.670;23.318;2024-03-23T01:02:55;42.00;;;16.97;;
6149;SDS011;3106;42.670;23.318;2024-03-23T01:05:24;48.83;;;18.27;;
6149;SDS011;3106;42.670;23.318;2024-03-23T01:07:50;43.97;;;17.97;;
6149;SDS011;3106;42.670;23.318;2024-03-23T01:10:17;37.50;;;17.57;;
6149;SDS011;3106;42.670;23.318;2024-03-23T01:12:43;42.10;;;17.63;;
6149;SDS011;3106;42.670;23.318;2024-03-23T01:15:11;48.97;;;18.07;;
6149;SDS011;3106;42.670;23.318;2024-03-23T01:17:38;44.53;;;17.93;;
6149;SDS011;3106;42.670;23.318;2024-03-23T01:20:06;44.03;;;18.23;;
6149;SDS011;3106;42.670;23.318;2024-03-23T01:22:33;37.50;;;17.23;;
6149;SDS011;3106;42.670;23.318;2024-03-23T01:25:00;54.97;;;18.63;;
6149;SDS011;3106;42.670;23.318;2024-03-23T01:27:26;45.80;;;17.70;;
6149;SDS011;3106;42.670;23.318;2024-03-23T01:29:53;45.00;;;18.67;;
6149;SDS011;3106;42.670;23.318;2024-03-23T01:32:23;51.77;;;17.30;;
6149;SDS011;3106;42.670;23.318;2024-03-23T01:34:51;43.40;;;17.10;;
6149;SDS011;3106;42.670;23.318;2024-03-23T01:37:19;34.37;;;16.37;;
6149;SDS011;3106;42.670;23.318;2024-03-23T01:39:45;37.60;;;17.33;;
6149;SDS011;3106;42.670;23.318;2024-03-23T01:42:12;43.97;;;17.53;;
6149;SDS011;3106;42.670;23.318;2024-03-23T01:44:39;41.43;;;17.90;;
6149;SDS011;3106;42.670;23.318;2024-03-23T01:47:06;42.03;;;18.77;;
6149;SDS011;3106;42.670;23.318;2024-03-23T01:49:34;40.20;;;19.87;;
6149;SDS011;3106;42.670;23.318;2024-03-23T01:52:00;40.90;;;20.30;;
6149;SDS011;3106;42.670;23.318;2024-03-23T01:54:31;38.60;;;18.10;;
6149;SDS011;3106;42.670;23.318;2024-03-23T01:56:56;45.03;;;17.73;;
6149;SDS011;3106;42.670;23.318;2024-03-23T01:59:24;47.03;;;18.17;;
6149;SDS011;3106;42.670;23.318;2024-03-23T02:01:49;44.57;;;18.73;;
6149;SDS011;3106;42.670;23.318;2024-03-23T02:04:18;44.07;;;16.90;;
6149;SDS011;3106;42.670;23.318;2024-03-23T02:06:45;42.03;;;17.20;;
6149;SDS011;3106;42.670;23.318;2024-03-23T02:09:12;40.67;;;16.50;;
6149;SDS011;3106;42.670;23.318;2024-03-23T02:11:38;39.73;;;16.80;;
6149;SDS011;3106;42.670;23.318;2024-03-23T02:14:05;43.03;;;17.77;;
6149;SDS011;3106;42.670;23.318;2024-03-23T02:16:34;37.50;;;16.43;;
6149;SDS011;3106;42.670;23.318;2024-03-23T02:19:00;35.20;;;15.70;;
6149;SDS011;3106;42.670;23.318;2024-03-23T02:21:27;44.73;;;15.87;;
6149;SDS011;3106;42.670;23.318;2024-03-23T02:24:00;39.60;;;17.03;;
6149;SDS011;3106;42.670;23.318;2024-03-23T02:26:27;37.57;;;16.03;;
6149;SDS011;3106;42.670;23.318;2024-03-23T02:28:53;36.97;;;15.40;;
6149;SDS011;3106;42.670;23.318;2024-03-23T02:31:22;37.77;;;14.80;;
6149;SDS011;3106;42.670;23.318;2024-03-23T02:33:49;32.17;;;13.80;;
6149;SDS011;3106;42.670;23.318;2024-03-23T02:36:15;37.27;;;14.87;;
6149;SDS011;3106;42.670;23.318;2024-03-23T02:38:42;28.40;;;14.40;;
6149;SDS011;3106;42.670;23.318;2024-03-23T02:41:09;30.40;;;13.07;;
6149;SDS011;3106;42.670;23.318;2024-03-23T02:43:35;30.70;;;13.27;;
6149;SDS011;3106;42.670;23.318;2024-03-23T02:46:01;31.43;;;12.80;;
6149;SDS011;3106;42.670;23.318;2024-03-23T02:48:29;31.50;;;13.30;;
6149;SDS011;3106;42.670;23.318;2024-03-23T02:50:57;31.40;;;12.90;;
6149;SDS011;3106;42.670;23.318;2024-03-23T02:53:23;33.43;;;14.50;;
6149;SDS011;3106;42.670;23.318;2024-03-23T02:55:49;30.97;;;13.03;;
6149;SDS011;3106;42.670;23.318;2024-03-23T02:58:17;27.17;;;12.93;;
6149;SDS011;3106;42.670;23.318;2024-03-23T03:00:44;30.50;;;13.27;;
6149;SDS011;3106;42.670;23.318;2024-03-23T03:03:11;26.93;;;12.93;;
6149;SDS011;3106;42.670;23.318;2024-03-23T03:05:37;25.67;;;12.97;;
6149;SDS011;3106;42.670;23.318;2024-03-23T03:08:05;25.13;;;12.77;;
6149;SDS011;3106;42.670;23.318;2024-03-23T03:10:31;38.20;;;14.30;;
6149;SDS011;3106;42.670;23.318;2024-03-23T03:13:00;31.40;;;13.93;;
6149;SDS011;3106;42.670;23.318;2024-03-23T03:15:27;29.47;;;14.13;;
6149;SDS011;3106;42.670;23.318;2024-03-23T03:17:54;33.97;;;14.20;;
6149;SDS011;3106;42.670;23.318;2024-03-23T03:20:20;27.70;;;13.77;;
6149;SDS011;3106;42.670;23.318;2024-03-23T03:22:48;28.40;;;12.77;;
6149;SDS011;3106;42.670;23.318;2024-03-23T03:25:14;33.50;;;14.57;;
6149;SDS011;3106;42.670;23.318;2024-03-23T03:27:41;27.70;;;13.30;;
6149;SDS011;3106;42.670;23.318;2024-03-23T03:30:10;36.20;;;13.43;;
6149;SDS011;3106;42.670;23.318;2024-03-23T03:32:39;35.30;;;12.50;;
6149;SDS011;3106;42.670;23.318;2024-03-23T03:35:06;29.60;;;13.70;;
6149;SDS011;3106;42.670;23.318;2024-03-23T03:37:33;31.13;;;13.63;;
6149;SDS011;3106;42.670;23.318;2024-03-23T03:39:59;29.83;;;14.37;;
6149;SDS011;3106;42.670;23.318;2024-03-23T03:42:27;31.83;;;13.00;;
6149;SDS011;3106;42.670;23.318;2024-03-23T03:44:53;42.43;;;14.57;;
6149;SDS011;3106;42.670;23.318;2024-03-23T03:47:19;30.40;;;13.10;;
6149;SDS011;3106;42.670;23.318;2024-03-23T03:49:49;29.20;;;14.10;;
6149;SDS011;3106;42.670;23.318;2024-03-23T03:52:16;27.03;;;12.50;;
6149;SDS011;3106;42.670;23.318;2024-03-23T03:54:41;32.17;;;14.93;;
6149;SDS011;3106;42.670;23.318;2024-03-23T03:57:08;28.90;;;14.33;;
6149;SDS011;3106;42.670;23.318;2024-03-23T03:59:34;30.73;;;14.27;;
6149;SDS011;3106;42.670;23.318;2024-03-23T04:02:01;32.70;;;14.90;;
6149;SDS011;3106;42.670;23.318;2024-03-23T04:04:27;29.70;;;12.97;;
6149;SDS011;3106;42.670;23.318;2024-03-23T04:07:00;30.43;;;14.03;;
6149;SDS011;3106;42.670;23.318;2024-03-23T04:09:26;33.00;;;14.07;;
6149;SDS011;3106;42.670;23.318;2024-03-23T04:11:56;32.50;;;13.33;;
6149;SDS011;3106;42.670;23.318;2024-03-23T04:14:22;43.20;;;14.43;;
6149;SDS011;3106;42.670;23.318;2024-03-23T04:16:48;37.73;;;15.10;;
6149;SDS011;3106;42.670;23.318;2024-03-23T04:19:14;33.27;;;14.90;;
6149;SDS011;3106;42.670;23.318;2024-03-23T04:21:41;33.47;;;15.00;;
6149;SDS011;3106;42.670;23.318;2024-03-23T04:24:09;34.47;;;15.10;;
6149;SDS011;3106;42.670;23.318;2024-03-23T04:26:42;37.27;;;14.63;;
6149;SDS011;3106;42.670;23.318;2024-03-23T04:29:08;29.33;;;14.10;;
6149;SDS011;3106;42.670;23.318;2024-03-23T04:31:35;29.33;;;14.90;;
6149;SDS011;3106;42.670;23.318;2024-03-23T04:34:01;26.20;;;13.70;;
6149;SDS011;3106;42.670;23.318;2024-03-23T04:36:28;32.63;;;14.07;;
6149;SDS011;3106;42.670;23.318;2024-03-23T04:38:54;33.30;;;13.47;;
6149;SDS011;3106;42.670;23.318;2024-03-23T04:41:22;32.00;;;13.70;;
6149;SDS011;3106;42.670;23.318;2024-03-23T04:43:49;31.63;;;14.00;;
6149;SDS011;3106;42.670;23.318;2024-03-23T04:46:20;35.80;;;13.70;;
6149;SDS011;3106;42.670;23.318;2024-03-23T04:48:47;27.53;;;12.70;;
6149;SDS011;3106;42.670;23.318;2024-03-23T04:51:21;26.40;;;12.70;;
6149;SDS011;3106;42.670;23.318;2024-03-23T04:54:05;24.70;;;11.70;;
6149;SDS011;3106;42.670;23.318;2024-03-23T04:56:33;25.60;;;11.77;;
6149;SDS011;3106;42.670;23.318;2024-03-23T04:59:01;33.70;;;13.17;;
6149;SDS011;3106;42.670;23.318;2024-03-23T05:01:29;26.70;;;11.73;;
6149;SDS011;3106;42.670;23.318;2024-03-23T05:03:56;34.73;;;12.30;;
6149;SDS011;3106;42.670;23.318;2024-03-23T05:06:22;26.73;;;11.80;;
6149;SDS011;3106;42.670;23.318;2024-03-23T05:08:50;25.97;;;10.83;;
6149;SDS011;3106;42.670;23.318;2024-03-23T05:11:17;24.50;;;10.87;;
6149;SDS011;3106;42.670;23.318;2024-03-23T05:13:54;22.40;;;10.67;;
6149;SDS011;3106;42.670;23.318;2024-03-23T05:16:22;30.53;;;11.87;;
6149;SDS011;3106;42.670;23.318;2024-03-23T05:18:48;28.70;;;12.00;;
6149;SDS011;3106;42.670;23.318;2024-03-23T05:21:14;21.90;;;10.93;;
6149;SDS011;3106;42.670;23.318;2024-03-23T05:23:41;23.67;;;10.30;;
6149;SDS011;3106;42.670;23.318;2024-03-23T05:26:09;25.53;;;10.80;;
6149;SDS011;3106;42.670;23.318;2024-03-23T05:28:36;27.40;;;12.07;;
6149;SDS011;3106;42.670;23.318;2024-03-23T05:31:05;26.33;;;12.20;;
6149;SDS011;3106;42.670;23.318;2024-03-23T05:33:37;32.00;;;12.33;;
6149;SDS011;3106;42.670;23.318;2024-03-23T05:36:05;25.43;;;12.10;;
6149;SDS011;3106;42.670;23.318;2024-03-23T05:38:42;29.77;;;12.83;;
6149;SDS011;3106;42.670;23.318;2024-03-23T05:41:08;35.40;;;13.03;;
6149;SDS011;3106;42.670;23.318;2024-03-23T05:43:36;24.20;;;13.30;;
6149;SDS011;3106;42.670;23.318;2024-03-23T05:46:03;25.87;;;11.70;;
6149;SDS011;3106;42.670;23.318;2024-03-23T05:48:30;27.43;;;11.50;;
6149;SDS011;3106;42.670;23.318;2024-03-23T05:50:57;23.70;;;10.73;;
6149;SDS011;3106;42.670;23.318;2024-03-23T05:53:24;23.53;;;12.40;;
6149;SDS011;3106;42.670;23.318;2024-03-23T05:55:51;32.47;;;11.33;;
6149;SDS011;3106;42.670;23.318;2024-03-23T05:58:26;25.47;;;10.80;;
6149;SDS011;3106;42.670;23.318;2024-03-23T06:00:56;25.33;;;12.17;;
6149;SDS011;3106;42.670;23.318;2024-03-23T06:03:27;21.03;;;10.90;;
6149;SDS011;3106;42.670;23.318;2024-03-23T06:05:55;23.53;;;11.57;;
6149;SDS011;3106;42.670;23.318;2024-03-23T06:08:23;25.00;;;13.37;;
6149;SDS011;3106;42.670;23.318;2024-03-23T06:10:51;25.83;;;12.10;;
6149;SDS011;3106;42.670;23.318;2024-03-23T06:13:20;22.43;;;12.00;;
6149;SDS011;3106;42.670;23.318;2024-03-23T06:15:49;27.47;;;12.97;;
6149;SDS011;3106;42.670;23.318;2024-03-23T06:18:17;30.30;;;14.07;;
6149;SDS011;3106;42.670;23.318;2024-03-23T06:20:45;31.53;;;13.60;;
6149;SDS011;3106;42.670;23.318;2024-03-23T06:23:13;26.23;;;13.10;;
6149;SDS011;3106;42.670;23.318;2024-03-23T06:25:40;31.80;;;14.10;;
6149;SDS011;3106;42.670;23.318;2024-03-23T06:28:06;31.07;;;14.13;;
6149;SDS011;3106;42.670;23.318;2024-03-23T06:30:33;24.10;;;13.40;;
6149;SDS011;3106;42.670;23.318;2024-03-23T06:33:00;30.63;;;13.97;;
6149;SDS011;3106;42.670;23.318;2024-03-23T06:35:33;33.33;;;14.40;;
6149;SDS011;3106;42.670;23.318;2024-03-23T06:38:01;27.47;;;13.37;;
6149;SDS011;3106;42.670;23.318;2024-03-23T06:40:32;57.43;;;22.47;;
6149;SDS011;3106;42.670;23.318;2024-03-23T06:42:58;30.83;;;13.63;;
6149;SDS011;3106;42.670;23.318;2024-03-23T06:45:26;41.67;;;15.00;;
6149;SDS011;3106;42.670;23.318;2024-03-23T06:47:53;28.20;;;12.73;;
6149;SDS011;3106;42.670;23.318;2024-03-23T06:50:21;27.13;;;12.90;;
6149;SDS011;3106;42.670;23.318;2024-03-23T06:52:47;28.53;;;13.93;;
6149;SDS011;3106;42.670;23.318;2024-03-23T06:55:17;36.97;;;14.50;;
6149;SDS011;3106;42.670;23.318;2024-03-23T06:57:42;27.30;;;12.97;;
6149;SDS011;3106;42.670;23.318;2024-03-23T07:00:10;28.03;;;14.47;;
6149;SDS011;3106;42.670;23.318;2024-03-23T07:02:37;46.23;;;15.40;;
6149;SDS011;3106;42.670;23.318;2024-03-23T07:05:05;31.90;;;14.93;;
6149;SDS011;3106;42.670;23.318;2024-03-23T07:07:32;30.17;;;15.40;;
6149;SDS011;3106;42.670;23.318;2024-03-23T07:09:59;32.90;;;16.30;;
6149;SDS011;3106;42.670;23.318;2024-03-23T07:12:28;42.50;;;18.70;;
6149;SDS011;3106;42.670;23.318;2024-03-23T07:14:55;26.13;;;12.00;;
6149;SDS011;3106;42.670;23.318;2024-03-23T07:17:21;28.80;;;14.67;;
6149;SDS011;3106;42.670;23.318;2024-03-23T07:19:48;24.97;;;12.20;;
6149;SDS011;3106;42.670;23.318;2024-03-23T07:22:15;24.60;;;12.60;;
6149;SDS011;3106;42.670;23.318;2024-03-23T07:24:43;28.53;;;13.13;;
6149;SDS011;3106;42.670;23.318;2024-03-23T07:27:09;27.03;;;13.23;;
6149;SDS011;3106;42.670;23.318;2024-03-23T07:29:40;25.10;;;12.33;;
6149;SDS011;3106;42.670;23.318;2024-03-23T07:32:13;41.73;;;14.17;;
6149;SDS011;3106;42.670;23.318;2024-03-23T07:34:40;33.30;;;14.27;;
6149;SDS011;3106;42.670;23.318;2024-03-23T07:37:05;41.57;;;12.70;;
6149;SDS011;3106;42.670;23.318;2024-03-23T07:39:32;26.70;;;14.43;;
6149;SDS011;3106;42.670;23.318;2024-03-23T07:41:59;29.07;;;13.73;;
6149;SDS011;3106;42.670;23.318;2024-03-23T07:44:25;31.70;;;14.20;;
6149;SDS011;3106;42.670;23.318;2024-03-23T07:46:53;27.30;;;13.77;;
6149;SDS011;3106;42.670;23.318;2024-03-23T07:49:20;25.67;;;14.57;;
6149;SDS011;3106;42.670;23.318;2024-03-23T07:51:46;32.70;;;15.57;;
6149;SDS011;3106;42.670;23.318;2024-03-23T07:54:16;30.40;;;14.37;;
6149;SDS011;3106;42.670;23.318;2024-03-23T07:56:43;28.03;;;13.60;;
6149;SDS011;3106;42.670;23.318;2024-03-23T07:59:10;27.10;;;13.57;;
6149;SDS011;3106;42.670;23.318;2024-03-23T08:01:38;28.30;;;12.37;;
6149;SDS011;3106;42.670;23.318;2024-03-23T08:04:07;30.87;;;14.40;;
6149;SDS011;3106;42.670;23.318;2024-03-23T08:06:35;36.23;;;13.50;;
6149;SDS011;3106;42.670;23.318;2024-03-23T08:09:01;27.90;;;15.00;;
6149;SDS011;3106;42.670;23.318;2024-03-23T08:11:28;32.67;;;13.50;;
6149;SDS011;3106;42.670;23.318;2024-03-23T08:13:55;35.10;;;14.30;;
6149;SDS011;3106;42.670;23.318;2024-03-23T08:16:23;63.23;;;31.73;;
6149;SDS011;3106;42.670;23.318;2024-03-23T08:18:51;46.20;;;15.03;;
6149;SDS011;3106;42.670;23.318;2024-03-23T08:21:21;34.87;;;15.40;;
6149;SDS011;3106;42.670;23.318;2024-03-23T08:23:50;29.60;;;13.70;;
6149;SDS011;3106;42.670;23.318;2024-03-23T08:26:17;28.00;;;13.60;;
6149;SDS011;3106;42.670;23.318;2024-03-23T08:28:44;31.03;;;14.23;;
6149;SDS011;3106;42.670;23.318;2024-03-23T08:31:11;27.00;;;14.10;;
6149;SDS011;3106;42.670;23.318;2024-03-23T08:33:39;26.67;;;13.30;;
6149;SDS011;3106;42.670;23.318;2024-03-23T08:36:07;28.50;;;12.87;;
6149;SDS011;3106;42.670;23.318;2024-03-23T08:38:43;29.43;;;13.90;;
6149;SDS011;3106;42.670;23.318;2024-03-23T08:41:10;26.90;;;14.80;;
6149;SDS011;3106;42.670;23.318;2024-03-23T08:43:41;29.73;;;13.70;;
6149;SDS011;3106;42.670;23.318;2024-03-23T08:46:09;32.47;;;13.27;;
6149;SDS011;3106;42.670;23.318;2024-03-23T08:48:38;27.47;;;13.43;;
6149;SDS011;3106;42.670;23.318;2024-03-23T08:51:06;44.47;;;18.83;;
6149;SDS011;3106;42.670;23.318;2024-03-23T08:53:43;27.93;;;13.90;;
6149;SDS011;3106;42.670;23.318;2024-03-23T08:56:10;33.87;;;13.93;;
6149;SDS011;3106;42.670;23.318;2024-03-23T08:58:38;29.70;;;13.00;;
6149;SDS011;3106;42.670;23.318;2024-03-23T09:01:04;36.80;;;17.20;;
6149;SDS011;3106;42.670;23.318;2024-03-23T09:03:34;34.97;;;14.47;;
6149;SDS011;3106;42.670;23.318;2024-03-23T09:06:02;36.53;;;13.97;;
6149;SDS011;3106;42.670;23.318;2024-03-23T09:08:32;34.80;;;13.00;;
6149;SDS011;3106;42.670;23.318;2024-03-23T09:11:04;33.20;;;15.27;;
6149;SDS011;3106;42.670;23.318;2024-03-23T09:13:33;31.57;;;12.80;;
6149;SDS011;3106;42.670;23.318;2024-03-23T09:16:00;26.00;;;13.40;;
6149;SDS011;3106;42.670;23.318;2024-03-23T09:18:27;27.93;;;14.00;;
6149;SDS011;3106;42.670;23.318;2024-03-23T09:20:52;40.97;;;15.00;;
6149;SDS011;3106;42.670;23.318;2024-03-23T09:23:19;28.23;;;12.90;;
6149;SDS011;3106;42.670;23.318;2024-03-23T09:25:45;29.50;;;14.07;;
6149;SDS011;3106;42.670;23.318;2024-03-23T09:28:14;26.40;;;13.37;;
6149;SDS011;3106;42.670;23.318;2024-03-23T09:30:39;26.73;;;13.30;;
6149;SDS011;3106;42.670;23.318;2024-03-23T09:33:08;25.53;;;13.60;;
6149;SDS011;3106;42.670;23.318;2024-03-23T09:35:36;29.43;;;14.00;;
6149;SDS011;3106;42.670;23.318;2024-03-23T09:38:04;27.00;;;14.20;;
6149;SDS011;3106;42.670;23.318;2024-03-23T09:40:30;32.50;;;14.10;;
6149;SDS011;3106;42.670;23.318;2024-03-23T09:42:58;33.93;;;14.70;;
6149;SDS011;3106;42.670;23.318;2024-03-23T09:45:27;28.90;;;14.17;;
6149;SDS011;3106;42.670;23.318;2024-03-23T09:47:55;27.40;;;13.77;;
6149;SDS011;3106;42.670;23.318;2024-03-23T09:50:22;25.00;;;12.73;;
6149;SDS011;3106;42.670;23.318;2024-03-23T09:52:49;31.40;;;16.13;;
6149;SDS011;3106;42.670;23.318;2024-03-23T09:55:15;24.93;;;12.40;;
6149;SDS011;3106;42.670;23.318;2024-03-23T09:57:43;36.83;;;12.70;;
6149;SDS011;3106;42.670;23.318;2024-03-23T10:00:09;22.67;;;12.40;;
6149;SDS011;3106;42.670;23.318;2024-03-23T10:02:39;28.23;;;12.37;;
6149;SDS011;3106;42.670;23.318;2024-03-23T10:05:17;25.53;;;12.77;;
6149;SDS011;3106;42.670;23.318;2024-03-23T10:07:48;31.87;;;11.60;;
6149;SDS011;3106;42.670;23.318;2024-03-23T10:10:15;20.57;;;11.53;;
6149;SDS011;3106;42.670;23.318;2024-03-23T10:12:44;24.30;;;12.07;;
6149;SDS011;3106;42.670;23.318;2024-03-23T10:15:15;33.03;;;12.90;;
6149;SDS011;3106;42.670;23.318;2024-03-23T10:17:51;20.10;;;11.67;;
6149;SDS011;3106;42.670;23.318;2024-03-23T10:20:19;37.70;;;13.10;;
6149;SDS011;3106;42.670;23.318;2024-03-23T10:22:48;24.37;;;11.93;;
6149;SDS011;3106;42.670;23.318;2024-03-23T10:25:16;21.70;;;11.57;;
6149;SDS011;3106;42.670;23.318;2024-03-23T10:27:58;22.63;;;10.97;;
6149;SDS011;3106;42.670;23.318;2024-03-23T10:30:24;27.13;;;10.53;;
6149;SDS011;3106;42.670;23.318;2024-03-23T10:32:57;23.27;;;12.33;;
6149;SDS011;3106;42.670;23.318;2024-03-23T10:35:32;21.93;;;11.10;;
6149;SDS011;3106;42.670;23.318;2024-03-23T10:37:59;18.60;;;10.90;;
6149;SDS011;3106;42.670;23.318;2024-03-23T10:40:25;30.07;;;13.83;;
6149;SDS011;3106;42.670;23.318;2024-03-23T10:42:53;20.30;;;10.53;;
6149;SDS011;3106;42.670;23.318;2024-03-23T10:45:23;32.63;;;13.40;;
6149;SDS011;3106;42.670;23.318;2024-03-23T10:47:50;24.77;;;10.50;;
6149;SDS011;3106;42.670;23.318;2024-03-23T10:50:18;25.47;;;11.77;;
6149;SDS011;3106;42.670;23.318;2024-03-23T10:52:45;25.90;;;10.83;;
6149;SDS011;3106;42.670;23.318;2024-03-23T10:55:12;31.53;;;11.07;;
6149;SDS011;3106;42.670;23.318;2024-03-23T10:57:44;25.37;;;13.23;;
6149;SDS011;3106;42.670;23.318;2024-03-23T11:00:14;23.10;;;9.17;;
6149;SDS011;3106;42.670;23.318;2024-03-23T11:02:42;17.20;;;7.83;;
6149;SDS011;3106;42.670;23.318;2024-03-23T11:08:01;16.70;;;8.47;;
6149;SDS011;3106;42.670;23.318;2024-03-23T11:10:27;14.90;;;8.33;;
6149;SDS011;3106;42.670;23.318;2024-03-23T11:12:56;16.90;;;8.30;;
6149;SDS011;3106;42.670;23.318;2024-03-23T11:15:22;14.97;;;8.27;;
6149;SDS011;3106;42.670;23.318;2024-03-23T11:18:02;21.30;;;9.27;;
6149;SDS011;3106;42.670;23.318;2024-03-23T11:20:32;20.67;;;8.60;;
6149;SDS011;3106;42.670;23.318;2024-03-23T11:22:59;21.10;;;9.07;;
6149;SDS011;3106;42.670;23.318;2024-03-23T11:25:26;25.70;;;10.43;;
6149;SDS011;3106;42.670;23.318;2024-03-23T11:27:54;19.20;;;8.70;;
6149;SDS011;3106;42.670;23.318;2024-03-23T11:30:22;26.90;;;9.73;;
6149;SDS011;3106;42.670;23.318;2024-03-23T11:32:50;30.67;;;10.33;;
6149;SDS011;3106;42.670;23.318;2024-03-23T11:35:26;64.67;;;10.63;;
6149;SDS011;3106;42.670;23.318;2024-03-23T11:38:05;44.77;;;9.10;;
6149;SDS011;3106;42.670;23.318;2024-03-23T11:40:32;15.70;;;8.90;;
6149;SDS011;3106;42.670;23.318;2024-03-23T11:43:01;19.73;;;7.97;;
6149;SDS011;3106;42.670;23.318;2024-03-23T11:45:28;18.87;;;8.90;;
6149;SDS011;3106;42.670;23.318;2024-03-23T11:48:06;22.60;;;10.10;;
6149;SDS011;3106;42.670;23.318;2024-03-23T11:50:33;23.03;;;8.80;;
6149;SDS011;3106;42.670;23.318;2024-03-23T11:53:11;15.47;;;8.60;;
6149;SDS011;3106;42.670;23.318;2024-03-23T11:55:39;17.20;;;10.17;;
6149;SDS011;3106;42.670;23.318;2024-03-23T11:58:10;16.03;;;8.20;;
6149;SDS011;3106;42.670;23.318;2024-03-23T12:00:36;29.10;;;8.67;;
6149;SDS011;3106;42.670;23.318;2024-03-23T15:02:11;4.77;;;3.20;;
6149;SDS011;3106;42.670;23.318;2024-03-23T15:04:38;7.47;;;3.03;;
6149;SDS011;3106;42.670;23.318;2024-03-23T15:07:07;5.53;;;3.87;;
6149;SDS011;3106;42.670;23.318;2024-03-23T15:09:32;11.43;;;4.00;;
6149;SDS011;3106;42.670;23.318;2024-03-23T15:11:59;9.50;;;5.03;;
6149;SDS011;3106;42.670;23.318;2024-03-23T15:14:25;9.13;;;4.37;;
6149;SDS011;3106;42.670;23.318;2024-03-23T15:16:51;7.80;;;5.37;;
6149;SDS011;3106;42.670;23.318;2024-03-23T15:19:19;6.90;;;3.93;;
6149;SDS011;3106;42.670;23.318;2024-03-23T15:21:47;10.93;;;3.73;;
6149;SDS011;3106;42.670;23.318;2024-03-23T15:24:13;12.50;;;4.70;;
6149;SDS011;3106;42.670;23.318;2024-03-23T15:26:40;5.53;;;4.50;;
6149;SDS011;3106;42.670;23.318;2024-03-23T15:29:06;6.40;;;3.97;;
6149;SDS011;3106;42.670;23.318;2024-03-23T15:31:37;5.10;;;3.77;;
6149;SDS011;3106;42.670;23.318;2024-03-23T15:34:03;18.50;;;3.87;;
6149;SDS011;3106;42.670;23.318;2024-03-23T15:36:36;6.70;;;3.70;;
6149;SDS011;3106;42.670;23.318;2024-03-23T15:39:03;5.87;;;3.80;;
6149;SDS011;3106;42.670;23.318;2024-03-23T15:41:30;30.03;;;5.00;;
6149;SDS011;3106;42.670;23.318;2024-03-23T15:43:56;5.70;;;3.37;;
6149;SDS011;3106;42.670;23.318;2024-03-23T15:46:24;12.50;;;3.73;;
6149;SDS011;3106;42.670;23.318;2024-03-23T15:48:50;6.97;;;3.97;;
6149;SDS011;3106;42.670;23.318;2024-03-23T15:51:16;7.77;;;3.10;;
6149;SDS011;3106;42.670;23.318;2024-03-23T15:53:44;5.60;;;2.07;;
6149;SDS011;3106;42.670;23.318;2024-03-23T15:56:11;3.10;;;1.97;;
6149;SDS011;3106;42.670;23.318;2024-03-23T15:58:38;3.90;;;1.93;;
6149;SDS011;3106;42.670;23.318;2024-03-23T16:01:05;4.47;;;2.20;;
6149;SDS011;3106;42.670;23.318;2024-03-23T16:03:31;2.30;;;2.10;;
6149;SDS011;3106;42.670;23.318;2024-03-23T16:06:02;3.50;;;2.37;;
6149;SDS011;3106;42.670;23.318;2024-03-23T16:08:29;4.17;;;2.33;;
6149;SDS011;3106;42.670;23.318;2024-03-23T16:11:00;7.60;;;2.10;;
6149;SDS011;3106;42.670;23.318;2024-03-23T16:13:27;4.47;;;2.80;;
6149;SDS011;3106;42.670;23.318;2024-03-23T16:16:03;9.63;;;3.20;;
6149;SDS011;3106;42.670;23.318;2024-03-23T16:18:31;6.10;;;3.77;;
6149;SDS011;3106;42.670;23.318;2024-03-23T16:20:59;10.93;;;4.87;;
6149;SDS011;3106;42.670;23.318;2024-03-23T16:23:25;10.73;;;4.20;;
6149;SDS011;3106;42.670;23.318;2024-03-23T16:25:53;11.00;;;5.17;;
6149;SDS011;3106;42.670;23.318;2024-03-23T16:28:31;13.23;;;3.87;;
6149;SDS011;3106;42.670;23.318;2024-03-23T16:31:03;6.40;;;4.13;;
6149;SDS011;3106;42.670;23.318;2024-03-23T16:33:31;8.33;;;4.50;;
6149;SDS011;3106;42.670;23.318;2024-03-23T16:35:58;9.20;;;3.97;;
6149;SDS011;3106;42.670;23.318;2024-03-23T16:38:25;5.53;;;2.80;;
6149;SDS011;3106;42.670;23.318;2024-03-23T16:41:00;8.53;;;4.10;;
6149;SDS011;3106;42.670;23.318;2024-03-23T16:43:28;7.77;;;3.50;;
6149;SDS011;3106;42.670;23.318;2024-03-23T16:45:58;9.60;;;3.70;;
6149;SDS011;3106;42.670;23.318;2024-03-23T16:48:25;12.40;;;4.47;;
6149;SDS011;3106;42.670;23.318;2024-03-23T16:50:53;6.03;;;3.50;;
6149;SDS011;3106;42.670;23.318;2024-03-23T16:53:22;9.53;;;4.30;;
6149;SDS011;3106;42.670;23.318;2024-03-23T16:55:54;5.70;;;3.60;;
6149;SDS011;3106;42.670;23.318;2024-03-23T16:58:21;11.00;;;4.30;;
6149;SDS011;3106;42.670;23.318;2024-03-23T17:00:49;5.17;;;3.73;;
6149;SDS011;3106;42.670;23.318;2024-03-23T17:03:15;8.90;;;4.90;;
6149;SDS011;3106;42.670;23.318;2024-03-23T17:05:42;15.03;;;5.57;;
6149;SDS011;3106;42.670;23.318;2024-03-23T17:08:08;11.40;;;5.03;;
6149;SDS011;3106;42.670;23.318;2024-03-23T17:10:35;8.90;;;4.97;;
6149;SDS011;3106;42.670;23.318;2024-03-23T17:13:04;9.87;;;5.10;;
6149;SDS011;3106;42.670;23.318;2024-03-23T17:15:44;9.30;;;4.47;;
6149;SDS011;3106;42.670;23.318;2024-03-23T17:18:15;9.03;;;4.90;;
6149;SDS011;3106;42.670;23.318;2024-03-23T17:20:42;11.00;;;5.67;;
6149;SDS011;3106;42.670;23.318;2024-03-23T17:23:09;8.90;;;4.33;;
6149;SDS011;3106;42.670;23.318;2024-03-23T17:25:36;122.50;;;60.10;;
6149;SDS011;3106;42.670;23.318;2024-03-23T17:28:03;12.70;;;4.40;;
6149;SDS011;3106;42.670;23.318;2024-03-23T17:30:30;10.03;;;5.10;;
6149;SDS011;3106;42.670;23.318;2024-03-23T17:32:55;12.00;;;4.90;;
6149;SDS011;3106;42.670;23.318;2024-03-23T17:35:24;7.67;;;4.33;;
6149;SDS011;3106;42.670;23.318;2024-03-23T17:37:49;7.70;;;4.83;;
6149;SDS011;3106;42.670;23.318;2024-03-23T17:40:16;9.83;;;5.03;;
6149;SDS011;3106;42.670;23.318;2024-03-23T17:42:43;7.20;;;4.50;;
6149;SDS011;3106;42.670;23.318;2024-03-23T17:45:10;8.87;;;5.00;;
6149;SDS011;3106;42.670;23.318;2024-03-23T17:47:37;9.77;;;4.40;;
6149;SDS011;3106;42.670;23.318;2024-03-23T17:50:04;14.33;;;5.50;;
6149;SDS011;3106;42.670;23.318;2024-03-23T17:52:34;15.33;;;5.57;;
6149;SDS011;3106;42.670;23.318;2024-03-23T17:55:03;17.93;;;5.43;;
6149;SDS011;3106;42.670;23.318;2024-03-23T17:57:30;11.90;;;4.70;;
6149;SDS011;3106;42.670;23.318;2024-03-23T17:59:57;10.30;;;4.40;;
6149;SDS011;3106;42.670;23.318;2024-03-23T18:02:24;9.13;;;4.23;;
6149;SDS011;3106;42.670;23.318;2024-03-23T18:04:51;8.40;;;4.53;;
6149;SDS011;3106;42.670;23.318;2024-03-23T18:07:17;8.17;;;4.27;;
6149;SDS011;3106;42.670;23.318;2024-03-23T18:09:45;8.37;;;4.50;;
6149;SDS011;3106;42.670;23.318;2024-03-23T18:12:11;5.23;;;3.60;;
6149;SDS011;3106;42.670;23.318;2024-03-23T18:14:38;7.13;;;4.07;;
6149;SDS011;3106;42.670;23.318;2024-03-23T18:17:04;29.77;;;3.70;;
6149;SDS011;3106;42.670;23.318;2024-03-23T18:19:30;31.37;;;5.30;;
6149;SDS011;3106;42.670;23.318;2024-03-23T18:21:59;8.70;;;4.00;;
6149;SDS011;3106;42.670;23.318;2024-03-23T18:24:26;12.20;;;3.47;;
6149;SDS011;3106;42.670;23.318;2024-03-23T18:26:53;5.13;;;3.50;;
6149;SDS011;3106;42.670;23.318;2024-03-23T18:29:20;8.20;;;3.20;;
6149;SDS011;3106;42.670;23.318;2024-03-23T18:31:46;6.23;;;3.60;;
6149;SDS011;3106;42.670;23.318;2024-03-23T18:34:13;15.33;;;3.47;;
6149;SDS011;3106;42.670;23.318;2024-03-23T18:36:39;6.40;;;4.13;;
6149;SDS011;3106;42.670;23.318;2024-03-23T18:39:06;9.60;;;4.93;;
6149;SDS011;3106;42.670;23.318;2024-03-23T18:41:32;9.90;;;3.83;;